Waller, Texas
Current Conditions -  °F | °C
As of 11:15 AM on Thursday 18 Dec 2014 (Local Time) from KTME Reporting Station
Haze Haze  
Wind Chill: 63°   Ceiling: 500
Heat Index: 63°   Visibility: 3mi
Dew Point: 59°   Wind: 5mph
Humidity: 88%   Direction: 30°NNE
Pressure: 30.13"   Gusts: NA
Location:  30.06°N, 95.93°W
Report Text: KTME 181715Z AUTO 03004KT 3SM BR OVC005 17/15 A3013 RMK AO2
Loading
Personal Weather Stations






























Interactive Weather Map New forecast layout! Learn more

10-Day Weather Forecast

Advertisements
Track Severe Weather on mobile